createdAt,value
2022-09-22T00:01:18.663Z,2.10
2022-09-22T00:03:49.865Z,2.13
2022-09-22T00:06:19.430Z,2.92
2022-09-22T00:08:49.520Z,3.10
2022-09-22T00:11:19.226Z,3.03
2022-09-22T00:13:50.511Z,2.42
2022-09-22T00:16:19.617Z,2.88
2022-09-22T00:18:48.916Z,2.95
2022-09-22T00:21:18.646Z,2.40
2022-09-22T00:23:47.152Z,2.28
2022-09-22T00:26:16.338Z,2.97
2022-09-22T00:28:45.720Z,3.10
2022-09-22T00:31:15.511Z,2.33
2022-09-22T00:33:43.496Z,4.07
2022-09-22T00:36:12.726Z,3.13
2022-09-22T00:38:41.065Z,2.90
2022-09-22T00:41:10.970Z,2.95
2022-09-22T00:43:39.917Z,2.30
2022-09-22T00:46:14.732Z,3.42
2022-09-22T00:48:46.889Z,2.13
2022-09-22T00:51:17.734Z,2.75
2022-09-22T00:53:46.046Z,2.50
2022-09-22T00:56:15.400Z,3.22
2022-09-22T00:58:45.532Z,2.53
2022-09-22T01:01:15.237Z,3.70
2022-09-22T01:03:43.934Z,2.25
2022-09-22T01:06:18.313Z,2.08
2022-09-22T01:08:47.570Z,1.98
2022-09-22T01:11:16.009Z,3.17
2022-09-22T01:13:56.338Z,3.25
2022-09-22T01:16:37.811Z,2.92
2022-09-22T01:19:30.245Z,2.25
2022-09-22T01:22:04.026Z,3.00
2022-09-22T01:24:54.794Z,4.38
2022-09-22T01:27:35.485Z,2.40
2022-09-22T01:30:26.511Z,2.35
2022-09-22T01:33:08.028Z,3.95
2022-09-22T01:35:44.017Z,2.97
2022-09-22T01:38:14.275Z,2.88
2022-09-22T01:40:46.827Z,3.25
2022-09-22T01:43:18.531Z,3.42
2022-09-22T01:45:49.272Z,3.00
2022-09-22T01:48:20.515Z,4.32
2022-09-22T01:50:52.399Z,2.78
2022-09-22T01:53:24.093Z,3.20
2022-09-22T01:55:54.893Z,2.90
2022-09-22T01:58:26.489Z,2.42
2022-09-22T02:00:58.726Z,3.37
2022-09-22T02:03:30.422Z,3.45
2022-09-22T02:06:01.758Z,4.07
2022-09-22T02:08:33.652Z,2.67
2022-09-22T02:11:05.212Z,3.10
2022-09-22T02:13:32.880Z,3.20
2022-09-22T02:16:02.224Z,2.83
2022-09-22T02:18:33.394Z,3.13
2022-09-22T02:21:01.508Z,3.35
2022-09-22T02:23:29.480Z,3.28
2022-09-22T02:25:57.157Z,3.42
2022-09-22T02:28:25.817Z,3.25
2022-09-22T02:31:18.444Z,3.72
2022-09-22T02:33:45.445Z,3.57
2022-09-22T02:36:23.798Z,4.03
2022-09-22T02:38:54.985Z,3.97
2022-09-22T02:41:29.022Z,4.78
2022-09-22T02:44:01.596Z,4.10
2022-09-22T02:46:33.374Z,3.80
2022-09-22T02:49:04.733Z,4.30
2022-09-22T02:51:33.117Z,3.97
2022-09-22T02:54:01.730Z,4.60
2022-09-22T02:56:29.494Z,5.93
2022-09-22T02:58:58.571Z,4.22
2022-09-22T03:01:26.580Z,5.60
2022-09-22T03:03:54.645Z,4.60
2022-09-22T03:06:23.725Z,4.20
2022-09-22T03:08:51.381Z,4.88
2022-09-22T03:11:19.002Z,5.10
2022-09-22T03:13:46.654Z,5.05
2022-09-22T03:16:14.488Z,4.93
2022-09-22T03:18:42.205Z,5.70
2022-09-22T03:21:10.163Z,4.30
2022-09-22T03:23:39.220Z,4.03
2022-09-22T03:26:06.856Z,5.80
2022-09-22T03:28:34.489Z,5.60
2022-09-22T03:31:02.232Z,5.60
2022-09-22T03:33:29.937Z,4.70
2022-09-22T03:35:57.648Z,5.22
2022-09-22T03:38:25.442Z,5.25
2022-09-22T03:40:55.000Z,4.57
2022-09-22T03:43:22.754Z,8.30
2022-09-22T03:45:57.116Z,5.57
2022-09-22T03:48:25.008Z,5.18
2022-09-22T03:50:52.604Z,4.53
2022-09-22T03:53:20.846Z,4.95
2022-09-22T03:55:48.677Z,5.25
2022-09-22T03:58:19.923Z,5.40
2022-09-22T04:00:49.580Z,5.25
2022-09-22T04:03:17.284Z,6.00
2022-09-22T04:05:50.541Z,6.07
2022-09-22T04:08:18.269Z,4.60
2022-09-22T04:10:46.785Z,4.88
2022-09-22T04:13:14.946Z,4.87
2022-09-22T04:15:44.046Z,5.00
2022-09-22T04:18:13.768Z,5.40
2022-09-22T04:20:43.729Z,5.43
2022-09-22T04:23:11.637Z,5.40
2022-09-22T04:25:39.654Z,5.03
2022-09-22T04:28:07.908Z,5.30
2022-09-22T04:30:36.824Z,5.95
2022-09-22T04:33:06.135Z,4.90
2022-09-22T04:35:34.751Z,5.60
2022-09-22T04:38:02.389Z,6.20
2022-09-22T04:40:30.214Z,5.68
2022-09-22T04:42:58.547Z,5.70
2022-09-22T04:45:26.263Z,6.15
2022-09-22T04:47:54.504Z,6.50
2022-09-22T04:50:24.549Z,6.35
2022-09-22T04:52:53.794Z,7.00
2022-09-22T04:55:22.647Z,6.63
2022-09-22T04:57:50.503Z,6.63
2022-09-22T05:00:18.928Z,6.73
2022-09-22T05:02:46.815Z,6.45
2022-09-22T05:05:14.528Z,6.53
2022-09-22T05:07:45.797Z,6.00
2022-09-22T05:10:14.108Z,6.50
2022-09-22T05:12:42.072Z,6.17
2022-09-22T05:15:12.202Z,6.20
2022-09-22T05:17:46.223Z,6.20
2022-09-22T05:20:14.175Z,7.10
2022-09-22T05:22:42.140Z,6.78
2022-09-22T05:25:12.998Z,6.68
2022-09-22T05:27:44.753Z,7.55
2022-09-22T05:30:13.181Z,7.18
2022-09-22T05:32:43.854Z,7.63
2022-09-22T05:35:11.885Z,7.10
2022-09-22T05:37:39.721Z,7.10
2022-09-22T05:40:08.114Z,6.60
2022-09-22T05:42:40.788Z,8.10
2022-09-22T05:45:09.707Z,6.22
2022-09-22T05:47:37.552Z,6.50
2022-09-22T05:50:06.106Z,6.10
2022-09-22T05:52:33.886Z,6.95
2022-09-22T05:55:01.561Z,7.25
2022-09-22T05:57:29.374Z,6.40
2022-09-22T05:59:58.841Z,6.68
2022-09-22T06:02:27.094Z,6.57
2022-09-22T06:04:55.041Z,7.85
2022-09-22T06:07:24.084Z,8.27
2022-09-22T06:09:52.169Z,12.37
2022-09-22T06:12:20.430Z,12.43
2022-09-22T06:14:48.101Z,12.02
2022-09-22T06:17:17.065Z,14.25
2022-09-22T06:19:49.840Z,11.38
2022-09-22T06:22:18.384Z,11.73
2022-09-22T06:24:46.329Z,13.48
2022-09-22T06:27:14.080Z,12.52
2022-09-22T06:29:42.262Z,10.02
2022-09-22T06:32:10.477Z,9.27
2022-09-22T06:34:39.688Z,10.73
2022-09-22T06:37:09.621Z,10.38
2022-09-22T06:39:37.642Z,10.02
2022-09-22T06:42:05.858Z,10.38
2022-09-22T06:44:33.624Z,10.15
2022-09-22T06:47:05.226Z,10.23
2022-09-22T06:49:32.873Z,11.00
2022-09-22T06:52:02.243Z,9.70
2022-09-22T06:54:29.934Z,10.38
2022-09-22T06:56:57.833Z,11.60
2022-09-22T06:59:25.779Z,10.75
2022-09-22T07:01:53.551Z,10.00
2022-09-22T07:04:22.354Z,9.52
2022-09-22T07:06:50.957Z,8.87
2022-09-22T07:09:20.052Z,8.65
2022-09-22T07:11:49.109Z,8.60
2022-09-22T07:14:16.775Z,8.48
2022-09-22T07:16:44.444Z,8.57
2022-09-22T07:19:12.208Z,10.40
2022-09-22T07:21:40.419Z,8.77
2022-09-22T07:24:08.736Z,8.48
2022-09-22T07:26:39.305Z,7.95
2022-09-22T07:29:11.653Z,8.47
2022-09-22T07:31:40.566Z,8.40
2022-09-22T07:34:08.462Z,8.70
2022-09-22T07:36:37.987Z,8.82
2022-09-22T07:39:08.198Z,8.43
2022-09-22T07:41:41.824Z,8.10
2022-09-22T07:44:28.037Z,8.50
2022-09-22T07:46:56.033Z,8.40
2022-09-22T07:49:23.764Z,9.27
2022-09-22T07:51:54.785Z,8.88
2022-09-22T07:54:23.086Z,9.27
2022-09-22T07:56:55.345Z,8.57
2022-09-22T07:59:23.130Z,9.75
2022-09-22T08:01:51.508Z,8.95
2022-09-22T08:04:23.088Z,11.15
2022-09-22T08:06:55.613Z,10.07
2022-09-22T08:09:24.183Z,11.10
2022-09-22T08:11:53.481Z,10.60
2022-09-22T08:14:22.204Z,11.37
2022-09-22T08:16:51.891Z,9.82
2022-09-22T08:19:20.026Z,9.70
2022-09-22T08:21:49.820Z,11.47
2022-09-22T08:24:21.385Z,10.32
2022-09-22T08:26:51.210Z,11.27
2022-09-22T08:29:20.414Z,10.93
2022-09-22T08:31:49.287Z,9.70
2022-09-22T08:34:18.043Z,10.40
2022-09-22T08:36:48.499Z,9.48
2022-09-22T08:39:17.685Z,10.23
2022-09-22T08:41:56.505Z,10.38
2022-09-22T08:44:28.170Z,10.98
2022-09-22T08:47:01.119Z,11.25
2022-09-22T08:49:51.654Z,10.70
2022-09-22T08:52:25.480Z,9.75
2022-09-22T08:54:53.332Z,10.23
2022-09-22T08:57:39.112Z,9.05
2022-09-22T09:00:13.089Z,8.55
2022-09-22T09:02:42.448Z,8.57
2022-09-22T09:05:48.775Z,8.88
2022-09-22T09:08:46.460Z,7.82
2022-09-22T09:14:02.916Z,8.63
2022-09-22T09:16:45.108Z,10.57
2022-09-22T09:19:17.735Z,10.00
2022-09-22T09:21:51.257Z,8.95
2022-09-22T09:27:19.737Z,7.22
2022-09-22T09:29:57.624Z,6.78
2022-09-22T09:32:33.914Z,7.07
2022-09-22T09:35:01.915Z,5.87
2022-09-22T09:37:30.159Z,7.95
2022-09-22T09:39:58.185Z,7.47
2022-09-22T09:42:28.204Z,6.70
2022-09-22T09:45:02.461Z,5.97
2022-09-22T09:47:47.552Z,6.72
2022-09-22T09:50:16.568Z,6.93
2022-09-22T09:52:44.492Z,5.05
2022-09-22T09:55:26.747Z,7.20
2022-09-22T09:58:06.682Z,5.07
2022-09-22T10:00:34.488Z,6.20
2022-09-22T10:03:14.471Z,5.80
2022-09-22T10:05:43.469Z,5.63
2022-09-22T10:08:20.156Z,5.27
2022-09-22T10:10:48.881Z,6.20
2022-09-22T10:13:36.410Z,4.60
2022-09-22T10:16:22.318Z,4.65
2022-09-22T10:18:52.830Z,5.25
2022-09-22T10:21:22.251Z,4.75
2022-09-22T10:23:51.075Z,4.70
2022-09-22T10:26:21.920Z,4.97
2022-09-22T10:29:19.041Z,4.13
2022-09-22T10:32:05.495Z,4.38
2022-09-22T10:34:36.934Z,4.18
2022-09-22T10:37:07.181Z,4.57
2022-09-22T10:39:42.223Z,5.23
2022-09-22T10:42:20.233Z,4.78
2022-09-22T10:44:48.995Z,4.57
2022-09-22T10:47:34.024Z,2.20
2022-09-22T10:50:27.895Z,2.77
2022-09-22T10:52:57.882Z,3.10
2022-09-22T10:55:29.613Z,4.32
2022-09-22T10:58:13.217Z,3.92
2022-09-22T11:00:42.062Z,3.90
2022-09-22T11:03:47.338Z,3.88
2022-09-22T11:06:42.309Z,2.60
2022-09-22T11:09:33.617Z,4.65
2022-09-22T11:12:20.474Z,3.15
2022-09-22T11:15:11.639Z,3.60
2022-09-22T11:17:55.187Z,3.33
2022-09-22T11:20:38.167Z,4.22
2022-09-22T11:23:34.820Z,2.60
2022-09-22T11:26:23.375Z,1.75
2022-09-22T11:29:00.269Z,1.67
2022-09-22T11:31:46.625Z,3.33
2022-09-22T11:34:34.109Z,2.95
2022-09-22T11:37:25.567Z,3.83
2022-09-22T11:40:03.985Z,4.18
2022-09-22T11:42:37.001Z,2.55
2022-09-22T11:45:08.764Z,3.37
2022-09-22T11:47:48.768Z,3.78
2022-09-22T11:50:35.317Z,2.63
2022-09-22T11:53:22.547Z,2.90
2022-09-22T11:55:59.610Z,3.00
2022-09-22T11:59:45.920Z,3.65
2022-09-22T12:02:18.745Z,3.05
2022-09-22T12:04:50.697Z,3.42
2022-09-22T12:07:25.927Z,4.47
2022-09-22T12:09:56.455Z,5.70
2022-09-22T12:14:04.960Z,2.47
2022-09-22T12:16:41.695Z,2.65
2022-09-22T12:19:17.721Z,2.25
2022-09-22T12:21:49.798Z,2.35
2022-09-22T12:24:17.624Z,2.75
2022-09-22T12:26:47.456Z,4.60
2022-09-22T12:30:37.956Z,4.40
2022-09-22T12:33:05.709Z,3.43
2022-09-22T12:35:34.008Z,4.82
2022-09-22T12:38:02.480Z,5.32
2022-09-22T12:40:32.104Z,3.40
2022-09-22T12:43:00.922Z,3.27
2022-09-22T12:45:32.335Z,5.70
2022-09-22T12:48:04.782Z,4.13
2022-09-22T12:50:38.823Z,4.30
2022-09-22T12:53:11.554Z,4.75
2022-09-22T12:55:39.911Z,3.40
2022-09-22T12:58:42.829Z,3.80
2022-09-22T13:01:35.733Z,3.92
2022-09-22T13:04:14.878Z,4.00
2022-09-22T13:07:00.609Z,3.20
2022-09-22T13:09:31.708Z,4.10
2022-09-22T13:12:27.010Z,3.63
2022-09-22T13:15:02.510Z,4.55
2022-09-22T13:17:43.757Z,4.70
2022-09-22T13:20:21.740Z,4.30
2022-09-22T13:22:51.081Z,6.70
2022-09-22T13:25:27.223Z,3.28
2022-09-22T13:28:06.636Z,4.10
2022-09-22T13:30:34.343Z,2.80
2022-09-22T13:33:02.161Z,3.08
2022-09-22T13:35:32.979Z,2.97
2022-09-22T13:38:01.185Z,5.25
2022-09-22T13:40:31.589Z,3.33
2022-09-22T13:43:02.037Z,2.65
2022-09-22T13:45:30.430Z,5.38
2022-09-22T13:48:03.724Z,3.45
2022-09-22T13:50:41.008Z,2.72
2022-09-22T13:53:08.952Z,4.55
2022-09-22T13:55:37.506Z,2.90
2022-09-22T13:58:06.758Z,2.65
2022-09-22T14:01:08.776Z,2.38
2022-09-22T14:03:36.957Z,5.00
2022-09-22T14:06:09.020Z,3.50
2022-09-22T14:08:36.930Z,2.17
2022-09-22T14:11:06.147Z,2.55
2022-09-22T14:13:37.784Z,2.40
2022-09-22T14:16:27.664Z,2.40
2022-09-22T14:18:59.810Z,1.88
2022-09-22T14:21:28.847Z,2.97
2022-09-22T14:23:57.555Z,2.28
2022-09-22T14:26:33.351Z,2.63
2022-09-22T14:29:15.143Z,2.00
2022-09-22T14:31:46.572Z,2.35
2022-09-22T14:34:19.571Z,3.92
2022-09-22T14:36:49.612Z,1.92
2022-09-22T14:39:20.133Z,2.55
2022-09-22T14:41:52.365Z,3.42
2022-09-22T14:44:26.652Z,2.28
2022-09-22T14:46:56.634Z,2.85
2022-09-22T14:49:37.627Z,4.00
2022-09-22T14:52:08.103Z,4.30
2022-09-22T14:54:36.081Z,2.70
2022-09-22T14:57:07.608Z,2.60
2022-09-22T14:59:55.704Z,3.20
2022-09-22T15:02:33.083Z,1.90
2022-09-22T15:05:03.384Z,3.22
2022-09-22T15:07:34.207Z,3.28
2022-09-22T15:10:03.523Z,3.53
2022-09-22T15:12:36.077Z,3.50
2022-09-22T15:15:03.861Z,3.75
2022-09-22T15:17:56.841Z,2.20
2022-09-22T15:20:27.129Z,2.00
2022-09-22T15:22:56.765Z,3.03
2022-09-22T15:25:24.806Z,2.33
2022-09-22T15:27:53.433Z,5.63
2022-09-22T15:30:22.059Z,4.47
2022-09-22T15:32:50.232Z,2.30
2022-09-22T15:35:18.892Z,1.80
2022-09-22T15:37:47.521Z,2.17
2022-09-22T15:40:18.600Z,2.10
2022-09-22T15:43:08.605Z,3.05
2022-09-22T15:45:34.766Z,3.15
2022-09-22T15:48:02.767Z,2.20
2022-09-22T15:50:32.362Z,3.30
2022-09-22T15:53:00.015Z,2.35
2022-09-22T15:55:29.183Z,4.65
2022-09-22T15:58:09.029Z,4.00
2022-09-22T16:00:37.339Z,2.25
2022-09-22T16:03:09.681Z,5.10
2022-09-22T16:05:38.091Z,12.75
2022-09-22T16:08:05.756Z,3.70
2022-09-22T16:10:36.258Z,2.80
2022-09-22T16:13:04.300Z,2.72
2022-09-22T16:15:33.029Z,3.13
2022-09-22T16:18:00.734Z,2.85
2022-09-22T16:20:28.693Z,2.23
2022-09-22T16:22:56.268Z,2.60
2022-09-22T16:25:23.985Z,3.97
2022-09-22T16:27:53.174Z,2.08
2022-09-22T16:30:25.219Z,2.10
2022-09-22T16:32:53.995Z,2.50
2022-09-22T16:35:24.218Z,2.78
2022-09-22T16:37:55.813Z,2.38
2022-09-22T16:40:24.915Z,2.63
2022-09-22T16:42:53.969Z,2.27
2022-09-22T16:45:41.664Z,3.30
2022-09-22T16:48:09.294Z,2.67
2022-09-22T16:50:43.025Z,6.65
2022-09-22T16:53:11.141Z,7.97
2022-09-22T16:55:38.792Z,3.10
2022-09-22T16:58:13.102Z,6.72
2022-09-22T17:00:40.786Z,5.78
2022-09-22T17:03:08.448Z,3.42
2022-09-22T17:05:38.065Z,2.70
2022-09-22T17:08:06.898Z,3.83
2022-09-22T17:10:35.535Z,2.83
2022-09-22T17:13:04.802Z,2.30
2022-09-22T17:15:36.112Z,3.03
2022-09-22T17:18:04.387Z,3.10
2022-09-22T17:20:32.137Z,1.90
2022-09-22T17:22:59.908Z,2.87
2022-09-22T17:25:29.440Z,2.17
2022-09-22T17:27:57.769Z,3.38
2022-09-22T17:30:25.889Z,3.22
2022-09-22T17:32:55.068Z,3.20
2022-09-22T17:35:22.763Z,2.20
2022-09-22T17:37:52.121Z,2.58
2022-09-22T17:40:19.969Z,2.47
2022-09-22T17:42:48.318Z,3.08
2022-09-22T17:45:16.003Z,3.03
2022-09-22T17:48:01.378Z,2.13
2022-09-22T17:50:48.139Z,2.40
2022-09-22T17:53:33.185Z,4.53
2022-09-22T17:56:05.091Z,7.15
2022-09-22T17:58:32.798Z,6.85
2022-09-22T18:01:00.648Z,6.70
2022-09-22T18:03:29.059Z,7.75
2022-09-22T18:05:58.329Z,5.00
2022-09-22T18:08:26.166Z,4.55
2022-09-22T18:10:54.411Z,4.72
2022-09-22T18:13:22.136Z,4.50
2022-09-22T18:15:50.957Z,5.33
2022-09-22T18:18:18.649Z,10.20
2022-09-22T18:20:46.320Z,10.63
2022-09-22T18:23:15.387Z,9.68
2022-09-22T18:25:42.963Z,7.90
2022-09-22T18:28:11.085Z,6.93
2022-09-22T18:30:40.822Z,8.60
2022-09-22T18:33:08.480Z,8.13
2022-09-22T18:35:36.948Z,8.50
2022-09-22T18:38:04.647Z,9.73
2022-09-22T18:40:33.729Z,8.13
2022-09-22T18:43:01.399Z,8.43
2022-09-22T18:45:29.150Z,10.00
2022-09-22T18:47:59.115Z,10.38
2022-09-22T18:50:28.052Z,11.13
2022-09-22T18:52:56.699Z,10.52
2022-09-22T18:55:24.310Z,10.70
2022-09-22T18:57:54.048Z,9.63
2022-09-22T19:00:22.178Z,11.33
2022-09-22T19:02:50.268Z,17.13
2022-09-22T19:05:18.100Z,22.63
2022-09-22T19:07:47.757Z,31.75
2022-09-22T19:10:18.791Z,32.70
2022-09-22T19:12:46.457Z,29.55
2022-09-22T19:15:18.648Z,24.58
2022-09-22T19:17:49.317Z,24.70
2022-09-22T19:20:18.603Z,28.08
2022-09-22T19:22:46.847Z,25.92
2022-09-22T19:25:14.918Z,24.55
2022-09-22T19:27:42.923Z,23.95
2022-09-22T19:30:11.915Z,25.95
2022-09-22T19:32:41.358Z,26.38
2022-09-22T19:35:10.512Z,26.33
2022-09-22T19:37:38.331Z,23.80
2022-09-22T19:40:06.873Z,24.23
2022-09-22T19:42:40.021Z,24.20
2022-09-22T19:45:08.873Z,22.20
2022-09-22T19:47:36.768Z,21.10
2022-09-22T19:50:07.806Z,20.33
2022-09-22T19:52:35.982Z,19.13
2022-09-22T19:55:03.629Z,18.13
2022-09-22T19:57:31.867Z,15.60
2022-09-22T19:59:59.655Z,15.70
2022-09-22T20:02:27.443Z,16.35
2022-09-22T20:04:55.836Z,17.88
2022-09-22T20:07:27.764Z,17.30
2022-09-22T20:09:56.510Z,23.00
2022-09-22T20:12:24.315Z,22.15
2022-09-22T20:14:52.654Z,21.35
2022-09-22T20:17:20.392Z,21.17
2022-09-22T20:19:48.034Z,19.83
2022-09-22T20:22:21.198Z,18.55
2022-09-22T20:24:54.035Z,18.58
2022-09-22T20:27:25.939Z,18.52
2022-09-22T20:29:57.042Z,17.98
2022-09-22T20:32:25.566Z,17.38
2022-09-22T20:34:54.036Z,17.13
2022-09-22T20:37:21.733Z,16.20
2022-09-22T20:39:51.106Z,15.50
2022-09-22T20:42:18.777Z,15.00
2022-09-22T20:44:46.847Z,16.35
2022-09-22T20:47:15.925Z,16.70
2022-09-22T20:49:45.924Z,15.77
2022-09-22T20:52:19.886Z,14.07
2022-09-22T20:54:47.787Z,15.40
2022-09-22T20:57:17.012Z,16.20
2022-09-22T20:59:45.764Z,15.45
2022-09-22T21:02:13.954Z,13.75
2022-09-22T21:04:42.151Z,11.90
2022-09-22T21:07:11.214Z,12.85
2022-09-22T21:09:56.446Z,12.32
2022-09-22T21:12:30.716Z,14.52
2022-09-22T21:14:59.041Z,11.43
2022-09-22T21:17:27.694Z,10.35
2022-09-22T21:19:56.278Z,9.57
2022-09-22T21:22:24.464Z,9.57
2022-09-22T21:24:52.531Z,9.10
2022-09-22T21:27:20.479Z,9.57
2022-09-22T21:29:49.658Z,10.43
2022-09-22T21:32:17.488Z,11.88
2022-09-22T21:34:45.789Z,12.80
2022-09-22T21:37:14.478Z,12.88
2022-09-22T21:39:42.133Z,12.73
2022-09-22T21:42:09.772Z,11.32
2022-09-22T21:44:37.465Z,11.90
2022-09-22T21:47:06.948Z,11.43
2022-09-22T21:49:34.674Z,11.73
2022-09-22T21:52:02.697Z,11.23
2022-09-22T21:54:31.164Z,11.18
2022-09-22T21:56:58.831Z,10.65
2022-09-22T21:59:26.569Z,10.40
2022-09-22T22:01:54.263Z,9.35
2022-09-22T22:04:23.461Z,8.73
2022-09-22T22:06:51.622Z,7.90
2022-09-22T22:09:20.881Z,8.00
2022-09-22T22:11:49.740Z,8.60
2022-09-22T22:14:19.587Z,8.02
2022-09-22T22:16:49.423Z,8.15
2022-09-22T22:19:19.970Z,8.38
2022-09-22T22:21:50.245Z,8.23
2022-09-22T22:24:31.675Z,8.00
2022-09-22T22:27:01.414Z,8.20
2022-09-22T22:29:31.780Z,7.53
2022-09-22T22:32:00.712Z,7.72
2022-09-22T22:34:28.486Z,7.10
2022-09-22T22:36:59.058Z,8.37
2022-09-22T22:39:27.014Z,8.13
2022-09-22T22:41:55.604Z,7.60
2022-09-22T22:44:23.436Z,8.15
2022-09-22T22:46:51.106Z,7.82
2022-09-22T22:49:19.073Z,7.72
2022-09-22T22:51:46.796Z,7.75
2022-09-22T22:54:15.865Z,8.35
2022-09-22T22:56:46.723Z,8.20
2022-09-22T22:59:16.874Z,7.90
2022-09-22T23:01:44.687Z,8.95
2022-09-22T23:04:12.703Z,8.27
2022-09-22T23:06:43.923Z,8.48
2022-09-22T23:09:13.971Z,7.75
2022-09-22T23:11:44.000Z,7.65
2022-09-22T23:14:13.216Z,8.20
2022-09-22T23:16:43.263Z,8.50
2022-09-22T23:19:13.030Z,7.77
2022-09-22T23:21:40.770Z,7.80
2022-09-22T23:24:09.152Z,7.47
2022-09-22T23:26:37.546Z,7.75
2022-09-22T23:29:06.959Z,7.28
2022-09-22T23:31:34.785Z,7.27
2022-09-22T23:34:02.568Z,7.10
2022-09-22T23:36:30.557Z,6.80
2022-09-22T23:39:01.903Z,7.00
2022-09-22T23:41:29.784Z,7.35
2022-09-22T23:43:57.410Z,7.35
2022-09-22T23:46:26.713Z,7.03
2022-09-22T23:48:55.369Z,6.70
2022-09-22T23:51:23.219Z,6.93
2022-09-22T23:53:51.190Z,7.22
2022-09-22T23:56:19.593Z,7.13
2022-09-22T23:58:47.622Z,7.60
